Time;durP1;ratioP1;P1;durP2;ratioP2;P2;SDS_P1;SDS_P2;PMS_P1;PMS_P2;Temp;Humidity;BMP_temperature;BMP_pressure;BME280_temperature;BME280_humidity;BME280_pressure;Samples;Min_cycle;Max_cycle;Signal;HPM_P1;HPM_P2
2023/03/03 00:01:15;;;;;;;1.90;1.33;;;;;;;3.54;100.00;99507.50;5113675;28;20198;-62
2023/03/03 00:03:42;;;;;;;2.87;1.87;;;;;;;3.56;100.00;99504.94;5113063;28;20316;-61
2023/03/03 00:06:11;;;;;;;3.33;1.93;;;;;;;3.70;100.00;99501.91;5113574;28;20226;-62
2023/03/03 00:08:40;;;;;;;3.60;2.97;;;;;;;3.75;100.00;99500.84;5113058;28;20225;-62
2023/03/03 00:11:08;;;;;;;2.77;2.37;;;;;;;3.87;100.00;99507.13;5113603;28;20712;-62
2023/03/03 00:13:44;;;;;;;4.20;2.10;;;;;;;3.96;100.00;99503.44;5113253;28;20225;-61
2023/03/03 00:16:15;;;;;;;1.87;1.70;;;;;;;4.03;100.00;99494.72;5113300;28;20200;-61
2023/03/03 00:18:45;;;;;;;1.77;1.67;;;;;;;4.07;100.00;99489.50;5112958;28;20232;-62
2023/03/03 00:21:28;;;;;;;4.67;2.80;;;;;;;4.10;100.00;99486.00;5113144;28;20193;-61
2023/03/03 00:24:11;;;;;;;2.47;1.70;;;;;;;4.11;100.00;99486.84;5112691;28;20243;-61
2023/03/03 00:26:41;;;;;;;3.77;2.40;;;;;;;4.05;100.00;99480.31;5112940;28;20201;-62
2023/03/03 00:29:27;;;;;;;2.50;1.80;;;;;;;4.07;100.00;99476.00;5112916;28;20190;-61
2023/03/03 00:31:54;;;;;;;3.20;2.33;;;;;;;4.09;100.00;99474.22;5112827;28;20201;-61
2023/03/03 00:34:26;;;;;;;2.20;1.77;;;;;;;4.13;100.00;99473.25;5112572;28;20189;-61
2023/03/03 00:36:55;;;;;;;1.77;1.63;;;;;;;4.07;100.00;99470.94;5112802;28;20201;-61
2023/03/03 00:39:29;;;;;;;2.80;1.77;;;;;;;4.09;100.00;99464.09;5112486;28;20453;-61
2023/03/03 00:41:56;;;;;;;3.13;2.13;;;;;;;4.07;100.00;99460.81;5112687;28;20209;-61
2023/03/03 00:44:41;;;;;;;3.03;2.10;;;;;;;4.08;100.00;99462.47;5112653;28;20188;-61
2023/03/03 00:47:26;;;;;;;1.97;1.30;;;;;;;4.10;100.00;99465.75;5112638;28;20226;-61
2023/03/03 00:49:54;;;;;;;3.07;2.33;;;;;;;4.01;100.00;99464.41;5112188;28;20328;-62
2023/03/03 00:52:28;;;;;;;4.00;1.67;;;;;;;4.05;100.00;99455.00;5112520;28;20228;-61
2023/03/03 00:54:56;;;;;;;1.57;1.47;;;;;;;4.10;100.00;99450.56;5112771;28;20402;-62
2023/03/03 00:57:23;;;;;;;2.67;2.00;;;;;;;4.13;100.00;99450.47;5112483;28;20315;-61
2023/03/03 00:59:50;;;;;;;3.53;2.30;;;;;;;4.09;100.00;99454.81;5112090;28;20193;-61
2023/03/03 01:02:17;;;;;;;2.47;1.30;;;;;;;4.00;100.00;99449.28;5111977;28;20217;-61
2023/03/03 01:04:48;;;;;;;2.67;1.93;;;;;;;4.03;100.00;99439.06;5112237;28;20193;-62
2023/03/03 01:07:15;;;;;;;3.33;2.37;;;;;;;4.03;100.00;99434.81;5112271;28;20225;-62
2023/03/03 01:09:42;;;;;;;3.47;1.90;;;;;;;4.04;100.00;99435.63;5112033;28;20197;-62
2023/03/03 01:12:12;;;;;;;2.83;1.90;;;;;;;4.01;100.00;99428.16;5111897;28;20228;-62
2023/03/03 01:14:40;;;;;;;4.00;2.60;;;;;;;3.97;100.00;99422.41;5112315;27;20198;-62
2023/03/03 01:17:07;;;;;;;1.97;1.80;;;;;;;4.02;100.00;99422.25;5112043;28;20221;-62
2023/03/03 01:19:34;;;;;;;4.33;1.60;;;;;;;3.90;100.00;99422.69;5112159;28;20227;-62
2023/03/03 01:22:01;;;;;;;4.37;2.87;;;;;;;3.78;100.00;99412.22;5112163;28;20221;-62
2023/03/03 01:24:28;;;;;;;1.77;1.63;;;;;;;3.88;100.00;99419.44;5111644;28;20244;-62
2023/03/03 01:26:54;;;;;;;3.73;2.43;;;;;;;3.97;100.00;99422.41;5111653;28;20207;-62
2023/03/03 01:29:23;;;;;;;3.80;2.23;;;;;;;4.10;100.00;99427.78;5111659;28;20208;-61
2023/03/03 01:31:50;;;;;;;4.23;2.80;;;;;;;3.95;100.00;99425.88;5111330;28;20201;-62
2023/03/03 01:34:16;;;;;;;3.40;1.93;;;;;;;3.78;100.00;99424.00;5111803;28;20208;-61
2023/03/03 01:36:43;;;;;;;4.93;2.17;;;;;;;3.91;100.00;99424.38;5111539;28;20232;-62
2023/03/03 01:39:11;;;;;;;2.00;1.83;;;;;;;4.00;100.00;99416.41;5111484;28;20204;-62
2023/03/03 01:41:37;;;;;;;3.17;2.07;;;;;;;3.98;100.00;99420.69;5111684;28;20201;-62
2023/03/03 01:44:05;;;;;;;1.90;1.80;;;;;;;4.01;100.00;99415.50;5111663;28;20235;-61
2023/03/03 01:46:42;;;;;;;4.17;2.20;;;;;;;3.95;100.00;99410.69;5111676;28;20618;-61
2023/03/03 01:49:14;;;;;;;3.97;1.87;;;;;;;3.93;100.00;99399.84;5111081;28;20200;-61
2023/03/03 01:51:47;;;;;;;1.53;1.43;;;;;;;3.97;100.00;99409.75;5110646;28;20201;-61
2023/03/03 01:54:18;;;;;;;2.93;2.50;;;;;;;3.96;100.00;99404.78;5111468;28;20205;-61
2023/03/03 01:56:45;;;;;;;2.60;2.33;;;;;;;3.93;100.00;99408.25;5111210;28;20209;-61
2023/03/03 01:59:16;;;;;;;1.63;1.53;;;;;;;3.93;100.00;99400.66;5110919;28;20189;-62
2023/03/03 02:01:46;;;;;;;2.77;1.70;;;;;;;3.95;100.00;99400.59;5111087;28;20209;-61
2023/03/03 02:04:14;;;;;;;2.17;1.97;;;;;;;3.89;100.00;99405.88;5110881;28;20229;-61
2023/03/03 02:06:47;;;;;;;2.00;1.90;;;;;;;3.92;100.00;99395.66;5110661;27;20205;-62
2023/03/03 02:09:21;;;;;;;1.73;1.60;;;;;;;3.95;100.00;99396.34;5110898;28;20194;-61
2023/03/03 02:11:52;;;;;;;2.27;1.40;;;;;;;4.01;100.00;99400.34;5110705;28;20193;-62
2023/03/03 02:14:19;;;;;;;4.47;2.07;;;;;;;3.80;100.00;99397.78;5111017;28;20201;-62
2023/03/03 02:16:48;;;;;;;1.43;1.27;;;;;;;3.69;100.00;99402.44;5110720;28;20205;-62
2023/03/03 02:19:24;;;;;;;4.43;2.20;;;;;;;3.74;100.00;99392.16;5110734;28;20212;-61
2023/03/03 02:21:52;;;;;;;3.33;1.77;;;;;;;3.62;100.00;99393.44;5110533;28;20227;-62
2023/03/03 02:24:26;;;;;;;3.17;1.77;;;;;;;3.63;100.00;99395.91;5110580;28;20606;-61
2023/03/03 02:26:54;;;;;;;5.37;1.70;;;;;;;3.51;100.00;99387.97;5110479;28;20205;-61
2023/03/03 02:29:21;;;;;;;2.47;1.67;;;;;;;3.50;100.00;99388.88;5110352;28;20194;-62
2023/03/03 02:31:48;;;;;;;1.63;1.43;;;;;;;3.48;100.00;99388.91;5110234;28;20205;-61
2023/03/03 02:34:15;;;;;;;1.83;1.63;;;;;;;3.59;100.00;99394.38;5110390;28;20220;-61
2023/03/03 02:36:42;;;;;;;2.10;1.40;;;;;;;3.54;100.00;99388.69;5110168;28;20209;-61
2023/03/03 02:39:12;;;;;;;1.60;1.50;;;;;;;3.42;100.00;99381.56;5110560;28;20704;-62
2023/03/03 02:41:43;;;;;;;1.53;1.37;;;;;;;3.34;100.00;99384.38;5110716;28;20193;-62
2023/03/03 02:44:12;;;;;;;4.27;1.73;;;;;;;3.53;100.00;99378.66;5110293;28;20229;-61
2023/03/03 02:46:42;;;;;;;3.90;2.13;;;;;;;3.33;100.00;99382.75;5110027;28;20194;-62
2023/03/03 02:49:11;;;;;;;2.60;1.93;;;;;;;3.26;100.00;99385.56;5109892;28;20681;-62
2023/03/03 02:51:38;;;;;;;4.40;2.03;;;;;;;3.30;100.00;99377.00;5110079;28;20197;-61
2023/03/03 02:54:06;;;;;;;1.80;1.67;;;;;;;3.25;100.00;99384.72;5110267;28;20206;-61
2023/03/03 02:56:33;;;;;;;2.70;1.80;;;;;;;3.22;100.00;99379.78;5110763;28;20205;-62
2023/03/03 02:59:00;;;;;;;2.33;1.73;;;;;;;3.27;100.00;99374.59;5109919;28;20231;-62
2023/03/03 03:01:30;;;;;;;2.97;1.80;;;;;;;3.23;100.00;99375.56;5110203;28;20269;-61
2023/03/03 03:03:58;;;;;;;2.30;0.90;;;;;;;3.44;100.00;99366.38;5113089;28;20235;-61
2023/03/03 03:06:25;;;;;;;1.60;1.50;;;;;;;3.47;100.00;99373.81;5114091;27;20215;-62
2023/03/03 03:08:52;;;;;;;2.00;1.83;;;;;;;3.36;100.00;99369.19;5114223;28;20213;-62
2023/03/03 03:11:18;;;;;;;1.83;1.60;;;;;;;3.34;100.00;99374.28;5114137;28;20220;-61
2023/03/03 03:13:45;;;;;;;1.40;1.30;;;;;;;3.41;100.00;99374.88;5114057;28;20231;-61
2023/03/03 03:16:12;;;;;;;2.53;1.97;;;;;;;3.35;100.00;99370.88;5114113;28;20493;-62
2023/03/03 03:18:40;;;;;;;3.83;1.90;;;;;;;3.32;100.00;99371.00;5114123;28;20255;-62
2023/03/03 03:21:09;;;;;;;1.93;1.73;;;;;;;3.35;100.00;99375.13;5114199;28;20209;-62
2023/03/03 03:23:36;;;;;;;2.37;1.93;;;;;;;3.29;100.00;99371.13;5113704;28;20240;-61
2023/03/03 03:26:03;;;;;;;2.10;1.80;;;;;;;3.27;100.00;99372.88;5114494;28;20200;-62
2023/03/03 03:28:32;;;;;;;1.80;1.70;;;;;;;3.28;100.00;99366.13;5113776;28;20227;-61
2023/03/03 03:30:59;;;;;;;4.20;2.70;;;;;;;3.30;100.00;99367.69;5113606;28;20661;-61
2023/03/03 03:33:27;;;;;;;2.80;2.07;;;;;;;3.25;100.00;99369.56;5113645;28;20221;-61
2023/03/03 03:35:55;;;;;;;1.63;1.30;;;;;;;3.26;100.00;99365.34;5113686;28;20282;-62
2023/03/03 03:38:22;;;;;;;2.43;1.23;;;;;;;3.14;100.00;99372.53;5113578;28;20220;-62
2023/03/03 03:40:49;;;;;;;1.87;1.57;;;;;;;3.19;100.00;99369.81;5113650;28;20681;-61
2023/03/03 03:43:16;;;;;;;1.50;1.37;;;;;;;3.15;100.00;99369.09;5113547;28;20233;-61
2023/03/03 03:45:44;;;;;;;2.07;1.53;;;;;;;3.17;100.00;99364.81;5113508;28;20197;-62
2023/03/03 03:48:11;;;;;;;2.10;1.47;;;;;;;3.12;100.00;99363.34;5113534;28;20225;-62
2023/03/03 03:50:38;;;;;;;2.37;1.87;;;;;;;3.10;100.00;99365.09;5113202;28;20197;-61
2023/03/03 03:53:07;;;;;;;2.03;1.70;;;;;;;3.13;100.00;99355.69;5113699;28;20251;-62
2023/03/03 03:55:34;;;;;;;3.43;2.00;;;;;;;3.12;100.00;99358.31;5113647;27;20597;-62
2023/03/03 03:58:01;;;;;;;2.07;1.53;;;;;;;3.14;100.00;99361.56;5113306;28;20460;-64
2023/03/03 04:00:28;;;;;;;1.17;1.07;;;;;;;3.26;100.00;99356.06;5113613;28;20579;-62
2023/03/03 04:02:54;;;;;;;2.33;1.70;;;;;;;3.39;100.00;99351.38;5113038;28;20236;-61
2023/03/03 04:05:21;;;;;;;2.67;1.90;;;;;;;3.47;100.00;99348.56;5112876;28;20231;-62
2023/03/03 04:07:48;;;;;;;3.10;1.80;;;;;;;3.52;100.00;99355.06;5113035;28;20232;-62
2023/03/03 04:10:17;;;;;;;3.10;1.80;;;;;;;3.42;100.00;99352.97;5112908;28;20193;-61
2023/03/03 04:12:44;;;;;;;1.70;1.60;;;;;;;3.30;100.00;99356.78;5113089;28;20301;-61
2023/03/03 04:15:13;;;;;;;3.23;2.93;;;;;;;3.29;100.00;99352.63;5112442;28;20205;-61
2023/03/03 04:17:40;;;;;;;1.43;1.33;;;;;;;3.28;100.00;99349.25;5112704;28;20229;-62
2023/03/03 04:20:09;;;;;;;2.60;1.77;;;;;;;3.33;100.00;99352.41;5112787;28;20231;-62
2023/03/03 04:22:36;;;;;;;1.90;1.80;;;;;;;3.31;100.00;99354.19;5112947;28;20609;-62
2023/03/03 04:25:04;;;;;;;1.53;1.40;;;;;;;3.36;100.00;99342.19;5112969;28;20229;-62
2023/03/03 04:27:33;;;;;;;1.67;1.37;;;;;;;3.46;100.00;99349.41;5112526;28;20221;-62
2023/03/03 04:30:00;;;;;;;1.90;1.80;;;;;;;3.58;100.00;99346.44;5112784;28;20212;-61
2023/03/03 04:32:27;;;;;;;10.03;2.70;;;;;;;3.54;100.00;99349.94;5112279;28;20232;-62
2023/03/03 04:34:54;;;;;;;1.67;1.43;;;;;;;3.63;100.00;99352.09;5112612;28;20213;-62
2023/03/03 04:37:21;;;;;;;2.50;1.47;;;;;;;3.82;100.00;99350.50;5112470;28;20228;-62
2023/03/03 04:39:48;;;;;;;2.53;1.90;;;;;;;3.88;100.00;99348.63;5112625;28;20212;-62
2023/03/03 04:42:15;;;;;;;3.87;2.43;;;;;;;3.95;100.00;99345.75;5112314;28;20232;-61
2023/03/03 04:44:43;;;;;;;3.90;2.87;;;;;;;3.96;100.00;99347.41;5112313;28;20225;-61
2023/03/03 04:47:10;;;;;;;1.67;1.50;;;;;;;3.90;100.00;99346.81;5112468;28;20229;-61
2023/03/03 04:49:37;;;;;;;4.30;2.40;;;;;;;3.82;100.00;99345.44;5111903;28;20193;-61
2023/03/03 04:52:05;;;;;;;3.27;2.77;;;;;;;3.79;100.00;99352.34;5112235;28;20307;-61
2023/03/03 04:54:32;;;;;;;2.47;2.27;;;;;;;3.88;100.00;99349.44;5111977;28;20201;-61
2023/03/03 04:56:59;;;;;;;1.60;1.40;;;;;;;3.82;100.00;99335.31;5112148;27;20217;-61
2023/03/03 04:59:26;;;;;;;3.33;1.40;;;;;;;3.82;100.00;99337.84;5112124;28;20200;-62
2023/03/03 05:01:54;;;;;;;2.90;2.60;;;;;;;3.86;100.00;99336.00;5112387;28;20201;-62
2023/03/03 05:04:21;;;;;;;2.37;1.77;;;;;;;3.89;100.00;99335.06;5112073;28;20236;-61
2023/03/03 05:06:48;;;;;;;2.07;1.93;;;;;;;3.78;100.00;99336.34;5112138;28;20209;-61
2023/03/03 05:09:15;;;;;;;2.80;2.03;;;;;;;3.77;100.00;99341.44;5112091;28;20665;-61
2023/03/03 05:11:41;;;;;;;1.40;1.30;;;;;;;3.77;100.00;99342.25;5111583;28;20689;-61
2023/03/03 05:14:08;;;;;;;1.53;1.43;;;;;;;3.83;100.00;99336.97;5112055;28;20204;-62
2023/03/03 05:16:35;;;;;;;2.53;2.03;;;;;;;3.86;100.00;99336.00;5111805;28;20194;-62
2023/03/03 05:19:03;;;;;;;1.50;1.40;;;;;;;3.84;100.00;99343.69;5111683;28;20225;-62
2023/03/03 05:21:30;;;;;;;2.67;1.80;;;;;;;3.80;100.00;99337.09;5111642;28;20197;-61
2023/03/03 05:23:57;;;;;;;2.53;2.33;;;;;;;3.80;100.00;99347.19;5111285;28;20486;-62
2023/03/03 05:26:24;;;;;;;1.83;1.73;;;;;;;3.88;100.00;99343.56;5110663;28;20190;-61
2023/03/03 05:28:51;;;;;;;1.40;1.30;;;;;;;3.91;100.00;99343.44;5111321;28;20331;-62
2023/03/03 05:31:17;;;;;;;1.83;1.67;;;;;;;3.96;100.00;99346.59;5111585;28;20216;-61
2023/03/03 05:33:44;;;;;;;1.93;1.63;;;;;;;3.99;100.00;99351.53;5111249;28;20841;-62
2023/03/03 05:36:12;;;;;;;2.37;1.73;;;;;;;3.98;100.00;99349.88;5111208;28;20200;-61
2023/03/03 05:38:39;;;;;;;2.20;2.00;;;;;;;3.96;100.00;99351.66;5111407;28;20584;-61
2023/03/03 05:41:06;;;;;;;4.80;2.73;;;;;;;3.98;100.00;99349.88;5111291;28;20194;-61
2023/03/03 05:43:33;;;;;;;2.27;1.97;;;;;;;3.98;100.00;99354.94;5111144;28;20217;-61
2023/03/03 05:46:00;;;;;;;2.40;2.07;;;;;;;3.95;100.00;99352.53;5111113;28;20612;-61
2023/03/03 05:48:27;;;;;;;2.27;1.67;;;;;;;3.88;100.00;99353.66;5110975;28;20232;-61
2023/03/03 05:50:54;;;;;;;4.23;2.00;;;;;;;3.93;100.00;99360.19;5110906;28;20193;-62
2023/03/03 05:53:22;;;;;;;3.17;2.30;;;;;;;4.06;100.00;99353.72;5110819;28;20223;-63
2023/03/03 05:55:49;;;;;;;2.77;1.80;;;;;;;4.10;100.00;99354.41;5110845;28;20677;-62
2023/03/03 05:58:16;;;;;;;3.30;2.47;;;;;;;4.11;100.00;99361.13;5110732;28;20217;-62
2023/03/03 06:00:43;;;;;;;2.87;1.93;;;;;;;4.15;100.00;99357.59;5110875;28;20208;-61
2023/03/03 06:03:09;;;;;;;3.00;2.10;;;;;;;4.16;100.00;99353.34;5110890;28;20217;-62
2023/03/03 06:05:36;;;;;;;10.97;2.77;;;;;;;4.17;100.00;99363.41;5110696;28;20634;-61
2023/03/03 06:08:04;;;;;;;2.10;1.90;;;;;;;4.13;100.00;99364.44;5111120;28;20221;-61
2023/03/03 06:10:32;;;;;;;2.50;1.67;;;;;;;4.11;100.00;99368.72;5110543;28;20600;-62
2023/03/03 06:12:59;;;;;;;2.00;1.70;;;;;;;3.96;100.00;99365.13;5110727;28;20225;-61
2023/03/03 06:15:26;;;;;;;5.43;2.33;;;;;;;4.03;100.00;99370.75;5110287;28;20292;-62
2023/03/03 06:17:53;;;;;;;2.83;2.40;;;;;;;4.02;100.00;99361.53;5110823;28;20259;-61
2023/03/03 06:20:20;;;;;;;8.63;2.43;;;;;;;4.11;100.00;99371.25;5110811;28;20197;-62
2023/03/03 06:22:47;;;;;;;3.83;2.80;;;;;;;4.21;100.00;99369.97;5110326;28;20233;-61
2023/03/03 06:25:13;;;;;;;2.13;1.93;;;;;;;4.34;100.00;99372.03;5110543;28;20260;-61
2023/03/03 06:27:43;;;;;;;2.83;2.33;;;;;;;4.23;100.00;99370.75;5110358;28;20217;-62
2023/03/03 06:30:11;;;;;;;2.93;2.67;;;;;;;4.27;100.00;99366.38;5110785;28;20197;-61
2023/03/03 06:32:38;;;;;;;3.57;2.30;;;;;;;4.30;100.00;99377.22;5110366;28;20217;-61
2023/03/03 06:35:06;;;;;;;5.80;3.27;;;;;;;4.36;100.00;99375.28;5110315;28;20592;-61
2023/03/03 06:37:33;;;;;;;5.03;3.67;;;;;;;4.40;100.00;99376.81;5110074;28;20221;-61
2023/03/03 06:39:59;;;;;;;3.37;2.47;;;;;;;4.47;100.00;99383.25;5110373;28;20208;-62
2023/03/03 06:42:26;;;;;;;7.73;3.17;;;;;;;4.47;100.00;99383.25;5110034;28;20225;-62
2023/03/03 06:44:55;;;;;;;4.87;2.40;;;;;;;4.60;100.00;99384.38;5110102;28;20231;-62
2023/03/03 06:47:22;;;;;;;3.07;2.57;;;;;;;4.36;100.00;99393.00;5109973;28;20232;-61
2023/03/03 06:49:49;;;;;;;6.10;3.00;;;;;;;4.48;100.00;99393.34;5109601;28;20225;-61
2023/03/03 06:52:20;;;;;;;2.90;2.10;;;;;;;4.44;100.00;99389.25;5109791;28;20225;-62
2023/03/03 06:54:47;;;;;;;2.63;2.07;;;;;;;4.58;100.00;99393.75;5109806;28;20673;-61
2023/03/03 06:57:20;;;;;;;5.43;2.67;;;;;;;4.50;100.00;99389.00;5109718;28;20236;-62
2023/03/03 06:59:52;;;;;;;4.07;1.93;;;;;;;4.58;100.00;99386.16;5109957;28;20193;-62
2023/03/03 07:02:21;;;;;;;2.70;2.50;;;;;;;4.50;100.00;99390.72;5109711;28;20225;-61
2023/03/03 07:04:48;;;;;;;4.53;2.77;;;;;;;4.46;100.00;99386.69;5109760;28;20221;-62
2023/03/03 07:07:19;;;;;;;2.10;1.60;;;;;;;4.58;100.00;99395.47;5109549;28;20700;-62
2023/03/03 07:09:48;;;;;;;2.67;1.90;;;;;;;4.67;100.00;99385.75;5109926;28;20649;-62
2023/03/03 07:12:18;;;;;;;3.63;2.30;;;;;;;4.79;100.00;99383.59;5109619;28;20221;-61
2023/03/03 07:14:49;;;;;;;2.17;1.60;;;;;;;4.81;100.00;99382.63;5109757;28;20208;-62
2023/03/03 07:17:20;;;;;;;9.30;2.50;;;;;;;4.84;100.00;99376.59;5110171;28;20225;-62
2023/03/03 07:19:47;;;;;;;6.67;3.10;;;;;;;4.79;100.00;99375.97;5109575;28;20195;-63
2023/03/03 07:22:17;;;;;;;4.30;2.60;;;;;;;4.85;100.00;99371.47;5109719;28;20221;-62
2023/03/03 07:24:45;;;;;;;3.00;2.30;;;;;;;4.91;100.00;99377.97;5109544;28;20739;-61
2023/03/03 07:27:18;;;;;;;2.53;1.83;;;;;;;4.84;100.00;99376.59;5109884;28;20608;-62
2023/03/03 07:29:47;;;;;;;2.83;2.50;;;;;;;4.72;100.00;99371.19;5109918;28;20669;-62
2023/03/03 07:32:26;;;;;;;1.83;1.73;;;;;;;4.80;100.00;99370.03;5109517;28;20228;-61
2023/03/03 07:34:55;;;;;;;4.60;2.23;;;;;;;4.91;100.00;99362.78;5109965;28;20713;-61
2023/03/03 07:37:30;;;;;;;2.83;1.10;;;;;;;4.78;100.00;99366.75;5110357;28;20217;-62
2023/03/03 07:39:57;;;;;;;9.00;3.03;;;;;;;4.87;100.00;99361.28;5109875;28;20245;-62
2023/03/03 07:42:27;;;;;;;7.60;3.73;;;;;;;4.97;100.00;99359.97;5109967;28;20225;-61
2023/03/03 07:44:56;;;;;;;2.23;1.67;;;;;;;5.07;100.00;99366.28;5110026;28;20313;-62
2023/03/03 07:47:27;;;;;;;3.30;2.70;;;;;;;5.07;100.00;99366.28;5110106;28;20597;-62
2023/03/03 07:49:55;;;;;;;4.47;2.33;;;;;;;5.12;100.00;99360.97;5112261;28;20211;-61
2023/03/03 07:52:26;;;;;;;2.77;2.43;;;;;;;5.11;100.00;99370.28;5113548;28;20217;-62
2023/03/03 07:54:55;;;;;;;4.77;3.20;;;;;;;5.17;100.00;99367.47;5113314;28;20205;-62
2023/03/03 07:57:25;;;;;;;4.13;2.23;;;;;;;4.93;100.00;99361.00;5113634;28;20224;-62
2023/03/03 07:59:55;;;;;;;4.20;2.10;;;;;;;4.99;100.00;99363.25;5113477;28;20189;-61
2023/03/03 08:02:37;;;;;;;7.00;3.37;;;;;;;5.04;100.00;99363.06;5113254;28;20228;-62
2023/03/03 08:05:26;;;;;;;8.43;3.23;;;;;;;5.26;100.00;99358.63;5113258;28;20220;-61
2023/03/03 08:07:53;;;;;;;2.17;1.77;;;;;;;5.26;100.00;99353.56;5113188;28;20225;-61
2023/03/03 08:10:36;;;;;;;4.17;2.47;;;;;;;5.30;100.00;99349.19;5113497;28;20197;-61
2023/03/03 08:13:15;;;;;;;5.23;2.70;;;;;;;5.31;100.00;99355.91;5113440;28;20716;-62
2023/03/03 08:15:43;;;;;;;5.03;2.77;;;;;;;5.12;100.00;99351.69;5113143;28;20201;-62
2023/03/03 08:18:21;;;;;;;2.67;2.10;;;;;;;5.08;100.00;99356.94;5113150;28;20224;-62
2023/03/03 08:20:50;;;;;;;4.27;2.80;;;;;;;5.31;100.00;99348.28;5112914;28;20189;-61
2023/03/03 08:23:18;;;;;;;4.43;2.73;;;;;;;5.43;100.00;99350.25;5113221;28;20328;-62
2023/03/03 08:25:46;;;;;;;4.10;3.57;;;;;;;5.61;100.00;99353.63;5112915;28;20251;-61
2023/03/03 08:28:14;;;;;;;4.40;2.90;;;;;;;5.64;100.00;99346.72;5112758;28;20723;-62
2023/03/03 08:30:41;;;;;;;5.27;2.77;;;;;;;5.35;100.00;99342.19;5112673;28;20205;-63
2023/03/03 08:33:08;;;;;;;4.70;2.67;;;;;;;5.44;100.00;99341.78;5112908;28;20248;-62
2023/03/03 08:35:36;;;;;;;7.10;2.77;;;;;;;5.68;100.00;99334.69;5112609;28;20195;-61
2023/03/03 08:38:05;;;;;;;9.17;4.20;;;;;;;5.73;100.00;99342.06;5112782;28;20250;-63
2023/03/03 08:40:32;;;;;;;6.20;2.07;;;;;;;5.89;100.00;99340.44;5112634;28;20298;-60
2023/03/03 08:42:59;;;;;;;11.00;3.53;;;;;;;5.89;100.00;99342.97;5113060;28;20580;-63
2023/03/03 08:45:27;;;;;;;4.23;3.23;;;;;;;5.94;100.00;99346.16;5112205;28;20263;-63
2023/03/03 08:47:54;;;;;;;3.97;3.30;;;;;;;6.02;100.00;99343.22;5112454;28;20229;-63
2023/03/03 08:50:21;;;;;;;2.17;2.00;;;;;;;6.03;100.00;99340.63;5112268;28;20609;-63
2023/03/03 08:52:49;;;;;;;6.47;2.90;;;;;;;6.10;100.00;99341.94;5112200;28;20224;-63
2023/03/03 08:55:16;;;;;;;5.67;3.93;;;;;;;5.98;100.00;99337.47;5112266;28;20197;-63
2023/03/03 08:57:43;;;;;;;5.87;2.93;;;;;;;6.12;100.00;99345.25;5112173;28;20223;-60
2023/03/03 09:00:13;;;;;;;5.33;3.60;;;;;;;6.08;100.00;99348.03;5110921;27;20200;-62
2023/03/03 09:02:40;;;;;;;4.30;2.67;;;;;;;5.93;100.00;99346.19;5112243;28;20701;-63
2023/03/03 09:05:08;;;;;;;3.03;2.53;;;;;;;6.08;100.00;99346.31;5111978;28;20228;-60
2023/03/03 09:07:34;;;;;;;5.37;2.53;;;;;;;6.22;100.00;99354.94;5112184;28;20311;-63
2023/03/03 09:10:04;;;;;;;4.53;3.53;;;;;;;6.45;100.00;99348.69;5112260;28;20668;-61
2023/03/03 09:12:34;;;;;;;3.43;2.63;;;;;;;6.36;100.00;99342.38;5112238;28;20599;-60
2023/03/03 09:15:13;;;;;;;5.93;3.33;;;;;;;6.41;100.00;99345.50;5112440;28;20201;-62
2023/03/03 09:17:40;;;;;;;5.03;3.53;;;;;;;6.30;100.00;99337.59;5111923;28;20220;-63
2023/03/03 09:20:23;;;;;;;3.13;2.83;;;;;;;6.13;100.00;99334.19;5112119;28;20688;-61
2023/03/03 09:22:50;;;;;;;3.43;2.27;;;;;;;6.46;100.00;99338.47;5111750;28;20221;-63
2023/03/03 09:25:26;;;;;;;5.57;3.53;;;;;;;6.33;100.00;99334.91;5111473;28;20217;-61
2023/03/03 09:27:54;;;;;;;4.50;3.33;;;;;;;6.53;100.00;99329.63;5111813;28;20224;-63
2023/03/03 09:30:36;;;;;;;4.70;3.17;;;;;;;6.49;100.00;99338.31;5111897;27;20208;-62
2023/03/03 09:33:23;;;;;;;3.63;2.20;;;;;;;6.39;100.00;99329.50;5111977;28;20278;-63
2023/03/03 09:35:52;;;;;;;3.67;2.00;;;;;;;6.60;100.00;99325.03;5111475;27;20197;-60
2023/03/03 09:38:27;;;;;;;3.17;2.87;;;;;;;6.49;100.00;99327.34;5111610;28;20754;-63
2023/03/03 09:41:36;;;;;;;5.77;3.13;;;;;;;6.68;100.00;99327.19;5111412;28;20250;-63
2023/03/03 09:44:28;;;;;;;3.90;3.10;;;;;;;6.75;100.00;99328.53;5103715;28;20247;-62
2023/03/03 09:47:09;;;;;;;4.10;3.03;;;;;;;6.86;100.00;99321.13;5108848;28;20660;-61
2023/03/03 09:49:46;;;;;;;5.37;3.27;;;;;;;7.02;100.00;99316.88;5111549;28;20192;-63
2023/03/03 09:52:27;;;;;;;4.07;3.67;;;;;;;7.17;100.00;99315.22;5110976;27;20215;-63
2023/03/03 09:55:04;;;;;;;6.23;4.10;;;;;;;7.24;100.00;99315.69;5111446;28;20193;-63
2023/03/03 09:57:48;;;;;;;3.67;2.93;;;;;;;7.45;100.00;99317.06;5111248;28;20232;-61
2023/03/03 10:00:35;;;;;;;5.00;3.33;;;;;;;7.62;100.00;99320.38;5111207;28;20197;-61
2023/03/03 10:03:22;;;;;;;10.17;3.37;;;;;;;7.62;100.00;99317.84;5111234;28;20212;-63
2023/03/03 10:05:57;;;;;;;7.40;4.03;;;;;;;7.91;100.00;99304.28;5111135;28;20219;-61
2023/03/03 10:08:38;;;;;;;5.53;3.37;;;;;;;7.71;100.00;99313.06;5110966;28;20417;-63
2023/03/03 10:11:17;;;;;;;4.40;2.83;;;;;;;8.01;100.00;99298.66;5110659;28;20208;-61
2023/03/03 10:14:04;;;;;;;4.73;2.93;;;;;;;8.21;100.00;99303.41;5111064;28;20583;-60
2023/03/03 10:16:49;;;;;;;7.37;4.53;;;;;;;8.10;100.00;99300.66;5110771;28;20216;-61
2023/03/03 10:19:33;;;;;;;4.23;3.23;;;;;;;8.12;100.00;99293.75;5110646;28;20207;-62
2023/03/03 10:22:11;;;;;;;6.30;4.00;;;;;;;8.36;100.00;99294.84;5110994;28;20312;-64
2023/03/03 10:24:43;;;;;;;8.13;4.63;;;;;;;8.45;100.00;99290.97;5110605;28;20200;-61
2023/03/03 10:27:26;;;;;;;6.83;4.27;;;;;;;8.62;100.00;99292.50;5110914;28;20225;-61
2023/03/03 10:30:03;;;;;;;5.17;3.67;;;;;;;8.72;100.00;99283.34;5111109;28;20208;-63
2023/03/03 10:32:50;;;;;;;8.30;4.13;;;;;;;8.30;100.00;99285.03;5110225;28;20227;-63
2023/03/03 10:35:58;;;;;;;10.30;4.30;;;;;;;8.21;100.00;99280.47;5110481;28;20201;-63
2023/03/03 10:38:46;;;;;;;5.50;3.80;;;;;;;8.21;100.00;99283.03;5080160;28;20232;-61
2023/03/03 10:41:28;;;;;;;6.57;4.40;;;;;;;8.04;100.00;99281.47;5110260;28;20201;-61
2023/03/03 10:44:17;;;;;;;5.60;3.37;;;;;;;8.12;100.00;99275.94;5110186;28;20217;-63
2023/03/03 10:46:58;;;;;;;4.97;3.37;;;;;;;8.01;100.00;99273.19;5110155;28;20229;-63
2023/03/03 10:49:42;;;;;;;5.50;3.57;;;;;;;8.06;100.00;99268.66;5110571;28;20197;-63
2023/03/03 10:52:22;;;;;;;7.67;3.90;;;;;;;8.23;100.00;99260.84;5110207;28;20221;-61
2023/03/03 10:55:06;;;;;;;6.47;4.37;;;;;;;8.23;100.00;99254.91;5110230;28;20200;-61
2023/03/03 10:57:40;;;;;;;5.90;3.33;;;;;;;8.18;100.00;99252.66;5110480;28;20217;-62
2023/03/03 11:00:21;;;;;;;5.33;4.00;;;;;;;8.46;100.00;99256.09;5110464;28;20190;-61
2023/03/03 11:03:15;;;;;;;3.40;3.03;;;;;;;8.45;100.00;99247.63;5110171;28;20225;-61
2023/03/03 11:05:50;;;;;;;5.93;4.23;;;;;;;8.06;100.00;99244.00;5109924;28;20236;-61
2023/03/03 11:08:22;;;;;;;6.03;4.53;;;;;;;8.14;100.00;99241.84;5110019;28;20221;-63
2023/03/03 11:11:00;;;;;;;5.97;2.53;;;;;;;8.23;100.00;99245.56;5110120;28;20201;-63
2023/03/03 11:13:37;;;;;;;5.43;3.70;;;;;;;8.43;100.00;99233.34;5109972;28;20228;-63
2023/03/03 11:16:27;;;;;;;10.77;3.57;;;;;;;8.21;100.00;99236.38;5110132;28;20196;-61
2023/03/03 11:19:12;;;;;;;7.93;5.53;;;;;;;8.29;100.00;99224.81;5110163;28;20228;-63
2023/03/03 11:21:47;;;;;;;7.10;4.37;;;;;;;8.32;100.00;99219.53;5110020;28;20197;-61
2023/03/03 11:24:27;;;;;;;7.40;3.57;;;;;;;8.35;100.00;99221.88;5112064;28;20200;-63
2023/03/03 11:27:17;;;;;;;4.97;3.97;;;;;;;8.31;100.00;99217.88;5114184;28;20221;-64
2023/03/03 11:29:58;;;;;;;5.63;4.57;;;;;;;8.38;100.00;99224.28;5114137;27;20197;-63
2023/03/03 11:32:33;;;;;;;5.67;3.80;;;;;;;8.51;100.00;99223.50;5113748;28;20220;-62
2023/03/03 11:35:16;;;;;;;4.73;3.70;;;;;;;8.54;100.00;99219.03;5113941;28;20192;-63
2023/03/03 11:37:50;;;;;;;4.73;3.63;;;;;;;8.46;100.00;99217.88;5113631;28;20228;-61
2023/03/03 11:40:21;;;;;;;9.23;4.70;;;;;;;8.13;100.00;99219.81;5113693;28;20227;-62
2023/03/03 11:43:00;;;;;;;6.20;3.07;;;;;;;8.01;100.00;99214.63;5113834;28;20240;-61
2023/03/03 11:45:34;;;;;;;4.60;3.43;;;;;;;7.90;100.00;99208.44;5114154;27;20688;-63
2023/03/03 11:48:09;;;;;;;7.20;4.23;;;;;;;7.89;100.00;99211.91;5113903;28;20599;-62
2023/03/03 11:50:41;;;;;;;9.80;4.97;;;;;;;8.18;100.00;99213.63;5113622;28;20199;-64
2023/03/03 11:53:24;;;;;;;8.43;4.33;;;;;;;8.12;100.00;99214.81;5113609;28;20225;-61